Time;durP1;ratioP1;P1;durP2;ratioP2;P2;SDS_P1;SDS_P2;PMS_P1;PMS_P2;Temp;Humidity;BMP_temperature;BMP_pressure;BME280_temperature;BME280_humidity;BME280_pressure;Samples;Min_cycle;Max_cycle;Signal;HPM_P1;HPM_P2
2022/10/21 00:02:05;;;;;;;;;;;;;;;-0.57;92.57;98319.54;107647;1270;69567;-79
2022/10/21 00:04:34;;;;;;;;;;;;;;;-0.60;92.49;98316.68;107664;1271;68480;-79
2022/10/21 00:07:04;;;;;;;;;;;;;;;-0.60;93.77;98315.98;107620;1270;59805;-79
2022/10/21 00:09:33;;;;;;;;;;;;;;;-0.62;94.39;98317.39;107658;1270;59674;-79
2022/10/21 00:12:05;;;;;;;;;;;;;;;-0.62;95.00;98318.93;107645;1267;71225;-79
2022/10/21 00:14:35;;;;;;;;;;;;;;;-0.63;94.72;98314.84;107644;1271;69659;-79
2022/10/21 00:17:05;;;;;;;;;;;;;;;-0.66;94.52;98307.16;107721;1271;69926;-79
2022/10/21 00:19:38;;;;;;;;;;;;;;;-0.66;95.10;98309.73;107650;1270;59772;-79
2022/10/21 00:22:09;;;;;;;;;;;;;;;-0.68;94.68;98306.53;107657;1269;59730;-79
2022/10/21 00:24:39;;;;;;;;;;;;;;;-0.71;94.50;98302.79;107681;1268;71378;-78
2022/10/21 00:27:08;;;;;;;;;;;;;;;-0.74;94.54;98301.30;107669;1269;68507;-78
2022/10/21 00:29:38;;;;;;;;;;;;;;;-0.75;95.59;98298.38;107643;1270;69099;-79
2022/10/21 00:32:09;;;;;;;;;;;;;;;-0.73;96.26;98296.15;107676;1269;59764;-78
2022/10/21 00:34:42;;;;;;;;;;;;;;;-0.75;96.01;98292.91;107625;1267;59703;-79
2022/10/21 00:37:11;;;;;;;;;;;;;;;-0.76;96.49;98291.55;107654;1271;71384;-79
2022/10/21 00:39:41;;;;;;;;;;;;;;;-0.78;96.24;98290.73;107630;1271;68287;-79
2022/10/21 00:42:14;;;;;;;;;;;;;;;-0.81;95.51;98289.41;107641;1270;69153;-79
2022/10/21 00:45:01;;;;;;;;;;;;;;;-0.84;95.17;98286.36;107679;1270;59713;-79
2022/10/21 00:47:54;;;;;;;;;;;;;;;-0.85;95.81;98281.92;107684;1269;59718;-79
2022/10/21 00:50:37;;;;;;;;;;;;;;;-0.83;96.38;98286.86;107622;1270;71453;-78
2022/10/21 00:53:13;;;;;;;;;;;;;;;-0.87;95.88;98286.58;107646;1270;68368;-79
2022/10/21 00:55:46;;;;;;;;;;;;;;;-0.88;96.67;98286.59;107674;1271;69353;-78
2022/10/21 00:58:18;;;;;;;;;;;;;;;-0.89;96.71;98285.91;107615;1270;59720;-79
2022/10/21 01:00:50;;;;;;;;;;;;;;;-0.94;95.65;98285.14;107630;1270;59734;-79
2022/10/21 01:03:21;;;;;;;;;;;;;;;-1.01;94.79;98286.77;107592;1270;72004;-79
2022/10/21 01:05:53;;;;;;;;;;;;;;;-1.09;94.66;98284.30;107625;1267;69740;-79
2022/10/21 01:08:25;;;;;;;;;;;;;;;-1.14;95.46;98283.48;107600;1271;69301;-79
2022/10/21 01:10:55;;;;;;;;;;;;;;;-1.18;95.07;98281.66;107614;1269;59775;-79
2022/10/21 01:13:32;;;;;;;;;;;;;;;-1.20;95.86;98282.03;107610;1270;59760;-79
2022/10/21 01:16:02;;;;;;;;;;;;;;;-1.26;94.90;98282.10;107606;1266;71400;-79
2022/10/21 01:18:58;;;;;;;;;;;;;;;-1.31;93.83;98279.59;107652;1270;69343;-79
2022/10/21 01:21:37;;;;;;;;;;;;;;;-1.35;94.86;98278.77;107597;1267;68539;-79
2022/10/21 01:24:16;;;;;;;;;;;;;;;-1.35;96.35;98280.32;107598;1270;59709;-79
2022/10/21 01:27:11;;;;;;;;;;;;;;;-1.38;96.10;98277.11;107648;1270;59723;-79
2022/10/21 01:29:51;;;;;;;;;;;;;;;-1.39;96.47;98267.72;107615;1270;70425;-79
2022/10/21 01:32:34;;;;;;;;;;;;;;;-1.40;96.15;98269.44;107580;1270;69233;-79
2022/10/21 01:35:20;;;;;;;;;;;;;;;-1.36;97.84;98268.36;107584;1270;69091;-79
2022/10/21 01:38:07;;;;;;;;;;;;;;;-1.37;97.84;98272.14;107606;1270;59739;-79
2022/10/21 01:40:57;;;;;;;;;;;;;;;-1.41;96.82;98270.14;107648;1267;59716;-79
2022/10/21 01:43:37;;;;;;;;;;;;;;;-1.46;95.56;98270.36;107575;1270;71455;-79
2022/10/21 01:46:18;;;;;;;;;;;;;;;-1.47;95.96;98270.21;107614;1270;69820;-79
2022/10/21 01:48:52;;;;;;;;;;;;;;;-1.49;96.22;98273.82;107647;1270;69243;-78
2022/10/21 01:51:23;;;;;;;;;;;;;;;-1.52;96.83;98271.27;107632;1270;59712;-78
2022/10/21 01:54:01;;;;;;;;;;;;;;;-1.56;94.87;98268.76;107671;1270;59806;-79
2022/10/21 01:56:31;;;;;;;;;;;;;;;-1.58;91.46;98271.52;107583;1270;71370;-80
2022/10/21 01:59:02;;;;;;;;;;;;;;;-1.61;92.51;98270.17;107596;1270;68474;-78
2022/10/21 02:01:33;;;;;;;;;;;;;;;-1.63;94.77;98268.66;107589;1270;69268;-79
2022/10/21 02:04:04;;;;;;;;;;;;;;;-1.65;95.45;98267.83;107641;1270;59709;-79
2022/10/21 02:06:34;;;;;;;;;;;;;;;-1.67;96.78;98266.13;107672;1270;59811;-78
2022/10/21 02:09:04;;;;;;;;;;;;;;;-1.69;96.90;98265.98;107742;1269;71362;-78
2022/10/21 02:11:36;;;;;;;;;;;;;;;-1.69;97.44;98268.04;107668;1266;67892;-78
2022/10/21 02:14:27;;;;;;;;;;;;;;;-1.69;97.42;98270.09;107676;1266;69403;-78
2022/10/21 02:16:58;;;;;;;;;;;;;;;-1.69;97.76;98270.09;107610;1269;59728;-78
2022/10/21 02:19:28;;;;;;;;;;;;;;;-1.72;96.96;98268.23;107635;1270;59695;-78
2022/10/21 02:22:03;;;;;;;;;;;;;;;-1.74;96.40;98266.89;107626;1266;71019;-78
2022/10/21 02:24:37;;;;;;;;;;;;;;;-1.73;97.63;98267.06;107636;1270;68499;-78
2022/10/21 02:27:08;;;;;;;;;;;;;;;-1.76;97.20;98263.15;107585;1270;69283;-78
2022/10/21 02:29:41;;;;;;;;;;;;;;;-1.75;96.35;98265.88;107630;1270;60128;-77
2022/10/21 02:32:29;;;;;;;;;;;;;;;-1.74;93.19;98266.90;107653;1270;59703;-78
2022/10/21 02:34:59;;;;;;;;;;;;;;;-1.68;90.24;98264.61;107655;1270;71232;-79
2022/10/21 02:37:35;;;;;;;;;;;;;;;-1.64;89.94;98264.91;107641;1270;69228;-78
2022/10/21 02:40:23;;;;;;;;;;;;;;;-1.61;89.28;98265.06;107604;1270;68488;-78
2022/10/21 02:42:56;;;;;;;;;;;;;;;-1.60;89.11;98267.43;107611;1270;59745;-78
2022/10/21 02:45:27;;;;;;;;;;;;;;;-1.60;90.60;98268.98;107617;1270;59665;-78
2022/10/21 02:47:57;;;;;;;;;;;;;;;-1.61;91.12;98268.14;107590;1270;70649;-78
2022/10/21 02:50:27;;;;;;;;;;;;;;;-1.64;92.22;98264.91;107574;1268;68428;-78
2022/10/21 02:52:58;;;;;;;;;;;;;;;-1.67;92.72;98264.60;107555;1271;69231;-77
2022/10/21 02:55:28;;;;;;;;;;;;;;;-1.70;93.52;98267.71;107600;1271;59767;-78
2022/10/21 02:57:58;;;;;;;;;;;;;;;-1.71;94.23;98269.77;107596;1270;59708;-78
2022/10/21 03:00:28;;;;;;;;;;;;;;;-1.73;93.67;98268.42;107593;1269;71280;-77
2022/10/21 03:03:00;;;;;;;;;;;;;;;-1.78;93.42;98272.40;107645;1267;69585;-77
2022/10/21 03:05:29;;;;;;;;;;;;;;;-1.84;93.34;98272.80;107637;1268;68764;-78
2022/10/21 03:08:04;;;;;;;;;;;;;;;-1.88;93.73;98267.56;107668;1268;59769;-78
2022/10/21 03:10:35;;;;;;;;;;;;;;;-1.90;94.82;98264.65;107662;1265;59698;-77
2022/10/21 03:13:04;;;;;;;;;;;;;;;-1.93;95.01;98266.58;107645;1270;71713;-78
2022/10/21 03:15:34;;;;;;;;;;;;;;;-1.96;95.02;98265.56;107622;1270;68033;-77
2022/10/21 03:18:04;;;;;;;;;;;;;;;-1.97;95.79;98267.63;107567;1266;68364;-77
2022/10/21 03:20:32;;;;;;;;;;;;;;;-1.98;96.10;98265.93;107634;1270;59744;-78
2022/10/21 03:23:02;;;;;;;;;;;;;;;-1.97;97.07;98267.63;107593;1270;59743;-78
2022/10/21 03:25:31;;;;;;;;;;;;;;;-1.96;97.15;98263.02;107606;1270;71666;-78
2022/10/21 03:28:03;;;;;;;;;;;;;;;-1.98;96.62;98258.59;107566;1270;69480;-78
2022/10/21 03:30:32;;;;;;;;;;;;;;;-2.00;92.52;98256.05;107617;1270;68328;-78
2022/10/21 03:33:00;;;;;;;;;;;;;;;-2.01;93.66;98260.32;107570;1270;59764;-79
2022/10/21 03:35:31;;;;;;;;;;;;;;;-2.02;95.43;98259.30;107621;1270;59635;-78
2022/10/21 03:38:00;;;;;;;;;;;;;;;-2.04;95.26;98261.02;107600;1266;72018;-78
2022/10/21 03:40:29;;;;;;;;;;;;;;;-2.08;94.92;98261.92;107616;1269;69372;-78
2022/10/21 03:42:58;;;;;;;;;;;;;;;-2.12;94.31;98258.53;107634;1270;69088;-78
2022/10/21 03:45:28;;;;;;;;;;;;;;;-2.15;94.57;98259.41;107638;1270;59774;-78
2022/10/21 03:47:57;;;;;;;;;;;;;;;-2.18;94.86;98258.59;107591;1270;59635;-78
2022/10/21 03:50:27;;;;;;;;;;;;;;;-2.23;94.26;98260.68;107624;1270;71252;-78
2022/10/21 03:52:58;;;;;;;;;;;;;;;-2.28;93.06;98261.57;107574;1270;69224;-78
2022/10/21 03:55:28;;;;;;;;;;;;;;;-2.31;92.70;98265.20;107606;1270;69127;-77
2022/10/21 03:57:57;;;;;;;;;;;;;;;-2.33;94.92;98255.46;107592;1266;59735;-78
2022/10/21 04:00:26;;;;;;;;;;;;;;;-2.34;94.54;98256.67;107654;1269;59779;-78
2022/10/21 04:02:59;;;;;;;;;;;;;;;-2.36;93.96;98254.98;107662;1268;71882;-78
2022/10/21 04:05:28;;;;;;;;;;;;;;;-2.37;94.30;98252.77;107682;1269;69112;-78
2022/10/21 04:07:58;;;;;;;;;;;;;;;-2.37;95.22;98253.45;107625;1269;69245;-78
2022/10/21 04:10:28;;;;;;;;;;;;;;;-2.37;95.45;98252.42;107654;1266;59734;-78
2022/10/21 04:12:57;;;;;;;;;;;;;;;-2.39;95.43;98251.60;107666;1269;59688;-78
2022/10/21 04:15:25;;;;;;;;;;;;;;;-2.40;94.22;98248.70;107639;1269;72008;-79
2022/10/21 04:17:54;;;;;;;;;;;;;;;-2.40;90.48;98246.30;107670;1269;69726;-79
2022/10/21 04:20:24;;;;;;;;;;;;;;;-2.38;93.11;98244.41;107618;1268;68715;-79
2022/10/21 04:22:53;;;;;;;;;;;;;;;-2.38;93.42;98239.64;107675;1269;59786;-79
2022/10/21 04:25:22;;;;;;;;;;;;;;;-2.36;94.45;98234.83;107750;1270;59849;-80
2022/10/21 04:27:51;;;;;;;;;;;;;;;-2.37;94.98;98235.86;107750;1264;71238;-77
2022/10/21 04:30:20;;;;;;;;;;;;;;;-2.38;95.93;98235.88;107662;1269;68921;-77
2022/10/21 04:32:49;;;;;;;;;;;;;;;-2.36;97.17;98233.47;107731;1266;70018;-77
2022/10/21 04:35:18;;;;;;;;;;;;;;;-2.38;96.74;98228.88;107624;1264;59770;-78
2022/10/21 04:37:47;;;;;;;;;;;;;;;-2.40;95.98;98230.42;107653;1269;59700;-78
2022/10/21 04:40:16;;;;;;;;;;;;;;;-2.42;95.35;98229.59;107622;1269;71434;-77
2022/10/21 04:42:48;;;;;;;;;;;;;;;-2.43;95.09;98229.77;107712;1270;69381;-77
2022/10/21 04:45:18;;;;;;;;;;;;;;;-2.43;95.43;98231.14;107776;1270;69906;-77
2022/10/21 04:47:47;;;;;;;;;;;;;;;-2.42;96.03;98233.51;107667;1268;59753;-78
2022/10/21 04:50:16;;;;;;;;;;;;;;;-2.42;96.05;98231.80;107698;1266;59752;-77
2022/10/21 04:52:45;;;;;;;;;;;;;;;-2.41;96.53;98233.16;107642;1269;70656;-77
2022/10/21 04:55:15;;;;;;;;;;;;;;;-2.38;97.33;98230.92;107653;1269;69653;-76
2022/10/21 04:57:44;;;;;;;;;;;;;;;-2.39;97.04;98231.11;107632;1270;69809;-76
2022/10/21 05:00:13;;;;;;;;;;;;;;;-2.43;96.00;98232.33;107672;1266;59834;-78
2022/10/21 05:02:42;;;;;;;;;;;;;;;-2.45;95.86;98235.41;107698;1268;59696;-77
2022/10/21 05:05:10;;;;;;;;;;;;;;;-2.46;95.94;98231.33;107671;1265;72060;-78
2022/10/21 05:07:39;;;;;;;;;;;;;;;-2.46;96.19;98237.29;107687;1268;69202;-78
2022/10/21 05:10:08;;;;;;;;;;;;;;;-2.46;96.31;98238.33;107690;1266;69259;-78
2022/10/21 05:12:38;;;;;;;;;;;;;;;-2.42;96.83;98238.30;107610;1269;59742;-77
2022/10/21 05:15:07;;;;;;;;;;;;;;;-2.37;97.06;98239.63;107688;1268;60067;-78
2022/10/21 05:17:35;;;;;;;;;;;;;;;-2.33;96.57;98235.67;107667;1269;71143;-77
2022/10/21 05:20:05;;;;;;;;;;;;;;;-2.28;96.32;98233.23;107658;1270;69905;-77
2022/10/21 05:22:34;;;;;;;;;;;;;;;-2.22;96.27;98233.52;107665;1269;69286;-78
2022/10/21 05:25:04;;;;;;;;;;;;;;;-2.15;95.87;98238.56;107665;1268;59735;-77
2022/10/21 05:27:33;;;;;;;;;;;;;;;-2.07;97.68;98240.91;107669;1268;59678;-77
2022/10/21 05:30:01;;;;;;;;;;;;;;;-2.01;97.59;98236.91;107705;1270;71887;-78
2022/10/21 05:32:30;;;;;;;;;;;;;;;-1.97;96.76;98237.05;107669;1270;68634;-76
2022/10/21 05:34:58;;;;;;;;;;;;;;;-1.90;96.24;98239.55;107610;1270;69353;-76
2022/10/21 05:37:27;;;;;;;;;;;;;;;-1.87;95.90;98243.79;107615;1270;59696;-74
2022/10/21 05:39:55;;;;;;;;;;;;;;;-1.84;95.94;98244.27;107584;1270;59712;-76
2022/10/21 05:42:25;;;;;;;;;;;;;;;-1.80;95.93;98243.54;107696;1270;71868;-75
2022/10/21 05:44:54;;;;;;;;;;;;;;;-1.73;96.09;98246.04;107658;1266;67738;-72
2022/10/21 05:47:23;;;;;;;;;;;;;;;-1.64;96.31;98250.38;107588;1270;67622;-74
2022/10/21 05:49:51;;;;;;;;;;;;;;;-1.58;95.30;98251.86;107627;1269;59742;-72
2022/10/21 05:52:20;;;;;;;;;;;;;;;-1.53;94.15;98255.73;107639;1266;59676;-72
2022/10/21 05:54:49;;;;;;;;;;;;;;;-1.46;93.48;98254.80;107584;1268;70937;-71
2022/10/21 05:57:17;;;;;;;;;;;;;;;-1.36;93.82;98250.06;107680;1270;68798;-74
2022/10/21 05:59:46;;;;;;;;;;;;;;;-1.22;95.90;98252.80;107704;1268;69574;-73
2022/10/21 06:02:16;;;;;;;;;;;;;;;-1.11;94.99;98256.27;107581;1268;59773;-73
2022/10/21 06:04:44;;;;;;;;;;;;;;;-0.96;94.54;98259.66;107673;1269;59712;-73
2022/10/21 06:07:13;;;;;;;;;;;;;;;-0.77;94.67;98259.22;107591;1266;71447;-73
2022/10/21 06:09:42;;;;;;;;;;;;;;;-0.44;93.75;98256.34;107738;1269;69808;-75
2022/10/21 06:12:11;;;;;;;;;;;;;;;0.06;94.51;98254.16;107655;1269;68524;-73
2022/10/21 06:14:43;;;;;;;;;;;;;;;0.59;93.51;98251.45;107588;1268;59795;-73
2022/10/21 06:17:17;;;;;;;;;;;;;;;1.17;89.33;98259.37;107706;1267;60029;-73
2022/10/21 06:19:47;;;;;;;;;;;;;;;1.52;85.09;98261.84;107685;1267;71894;-73
2022/10/21 06:22:18;;;;;;;;;;;;;;;1.98;85.35;98261.95;107755;1267;68362;-72
2022/10/21 06:24:48;;;;;;;;;;;;;;;2.40;84.85;98269.98;107651;1263;69321;-72
2022/10/21 06:27:16;;;;;;;;;;;;;;;2.71;81.08;98280.17;107630;1270;59757;-72
2022/10/21 06:29:45;;;;;;;;;;;;;;;3.11;81.38;98284.05;107649;1267;59813;-71
2022/10/21 06:32:14;;;;;;;;;;;;;;;3.44;77.62;98276.32;107676;1263;71528;-71
2022/10/21 06:34:42;;;;;;;;;;;;;;;3.86;75.65;98274.33;107671;1267;69750;-72
2022/10/21 06:37:11;;;;;;;;;;;;;;;4.52;79.41;98266.09;107705;1267;69235;-72
2022/10/21 06:39:40;;;;;;;;;;;;;;;5.22;80.91;98262.34;107705;1267;59830;-77
2022/10/21 06:42:08;;;;;;;;;;;;;;;5.87;76.81;98255.51;107848;1270;59751;-76
2022/10/21 06:44:39;;;;;;;;;;;;;;;6.34;69.22;98258.60;107787;1267;71351;-77
2022/10/21 06:47:09;;;;;;;;;;;;;;;6.48;65.91;98256.45;107708;1263;69887;-76
2022/10/21 06:49:39;;;;;;;;;;;;;;;6.46;64.86;98257.72;107866;1263;69154;-76
2022/10/21 06:52:07;;;;;;;;;;;;;;;6.91;64.11;98257.69;107824;1266;59771;-76
2022/10/21 06:54:36;;;;;;;;;;;;;;;7.41;66.64;98256.40;107941;1267;59720;-76
2022/10/21 06:57:04;;;;;;;;;;;;;;;8.08;65.57;98262.27;107909;1263;71465;-76
2022/10/21 06:59:32;;;;;;;;;;;;;;;8.43;62.35;98262.61;107680;1267;69384;-76
2022/10/21 07:02:01;;;;;;;;;;;;;;;8.27;60.44;98264.46;107885;1263;69691;-77
2022/10/21 07:04:30;;;;;;;;;;;;;;;8.38;60.18;98268.23;107872;1267;59773;-77
2022/10/21 07:06:58;;;;;;;;;;;;;;;8.70;58.99;98265.39;107924;1267;59720;-75
2022/10/21 07:09:27;;;;;;;;;;;;;;;8.86;58.23;98263.36;107729;1267;72015;-75
2022/10/21 07:11:55;;;;;;;;;;;;;;;9.41;57.57;98261.43;107933;1263;68387;-75
2022/10/21 07:14:24;;;;;;;;;;;;;;;9.81;55.99;98261.85;107671;1263;68830;-76
2022/10/21 07:16:52;;;;;;;;;;;;;;;10.03;55.05;98258.21;107855;1267;59794;-75
2022/10/21 07:19:21;;;;;;;;;;;;;;;10.80;55.32;98249.35;107738;1262;59823;-76
2022/10/21 07:21:49;;;;;;;;;;;;;;;11.41;54.23;98241.20;107815;1267;70621;-74
2022/10/21 07:24:17;;;;;;;;;;;;;;;11.85;52.27;98232.80;107795;1266;69197;-76
2022/10/21 07:26:50;;;;;;;;;;;;;;;12.11;50.27;98238.09;107337;1265;429949;-76
2022/10/21 07:29:19;;;;;;;;;;;;;;;12.22;49.89;98233.38;107826;1269;59706;-74
2022/10/21 07:31:47;;;;;;;;;;;;;;;12.36;48.14;98233.45;107795;1268;59752;-73
2022/10/21 07:34:16;;;;;;;;;;;;;;;12.17;48.49;98238.79;107741;1265;72030;-74
2022/10/21 07:36:47;;;;;;;;;;;;;;;12.08;48.94;98239.91;107734;1268;69227;-76
2022/10/21 07:39:16;;;;;;;;;;;;;;;12.00;48.91;98237.64;107743;1268;69932;-74
2022/10/21 07:41:49;;;;;;;;;;;;;;;12.32;47.99;98236.56;107787;1268;59757;-75
2022/10/21 07:44:17;;;;;;;;;;;;;;;12.50;48.01;98235.33;107739;1268;59765;-74
2022/10/21 07:46:47;;;;;;;;;;;;;;;13.17;46.72;98233.33;107639;1264;71464;-74
2022/10/21 07:49:16;;;;;;;;;;;;;;;13.93;46.26;98233.00;107792;1269;69165;-74
2022/10/21 07:51:45;;;;;;;;;;;;;;;14.80;43.33;98236.85;107766;1264;69939;-74
2022/10/21 07:54:13;;;;;;;;;;;;;;;15.42;43.00;98230.41;107636;1268;59771;-74
2022/10/21 07:56:49;;;;;;;;;;;;;;;15.45;40.80;98229.28;107685;1265;59718;-73
2022/10/21 07:59:18;;;;;;;;;;;;;;;15.28;41.07;98226.23;107686;1266;72465;-72
2022/10/21 08:01:47;;;;;;;;;;;;;;;14.61;41.58;98220.40;107666;1268;69297;-71
2022/10/21 08:04:23;;;;;;;;;;;;;;;14.93;40.72;98218.61;107651;1269;69286;-72
2022/10/21 08:06:52;;;;;;;;;;;;;;;14.60;41.61;98216.10;107657;1266;59790;-73
2022/10/21 08:09:21;;;;;;;;;;;;;;;14.99;40.68;98211.44;107748;1266;59844;-74
2022/10/21 08:11:49;;;;;;;;;;;;;;;14.54;41.09;98210.92;107615;1260;72031;-73
2022/10/21 08:14:18;;;;;;;;;;;;;;;14.87;40.76;98212.96;107653;1266;69193;-74
2022/10/21 08:16:49;;;;;;;;;;;;;;;14.58;41.53;98212.35;107720;1270;68919;-74
2022/10/21 08:19:20;;;;;;;;;;;;;;;14.98;41.96;98208.33;107746;1268;59811;-75
2022/10/21 08:21:48;;;;;;;;;;;;;;;15.46;40.31;98209.00;107750;1269;59661;-73
2022/10/21 08:24:16;;;;;;;;;;;;;;;15.47;39.58;98208.05;107633;1268;71419;-72
2022/10/21 08:26:45;;;;;;;;;;;;;;;14.98;40.67;98213.98;107719;1269;68811;-73
2022/10/21 08:29:13;;;;;;;;;;;;;;;15.73;39.85;98215.59;107830;1269;69220;-74
2022/10/21 08:31:43;;;;;;;;;;;;;;;15.42;39.91;98209.13;107641;1268;59759;-74
2022/10/21 08:34:11;;;;;;;;;;;;;;;15.73;39.67;98205.21;107824;1270;59689;-72
2022/10/21 08:36:39;;;;;;;;;;;;;;;15.89;39.39;98202.48;107661;1269;72061;-75
2022/10/21 08:39:08;;;;;;;;;;;;;;;16.12;38.93;98197.10;107745;1269;68317;-74
2022/10/21 08:41:39;;;;;;;;;;;;;;;16.86;39.12;98196.86;107615;1268;69022;-74
2022/10/21 08:44:20;;;;;;;;;;;;;;;17.39;37.16;98194.41;107610;1268;59719;-74
2022/10/21 08:46:52;;;;;;;;;;;;;;;18.54;36.37;98193.34;107664;1268;59760;-73
2022/10/21 08:49:30;;;;;;;;;;;;;;;19.01;35.50;98189.62;107791;1264;71532;-74
2022/10/21 08:52:12;;;;;;;;;;;;;;;18.69;34.76;98189.22;107632;1268;69971;-73
2022/10/21 08:54:40;;;;;;;;;;;;;;;18.50;35.04;98192.53;107788;1269;68388;-74
2022/10/21 08:57:10;;;;;;;;;;;;;;;17.72;35.63;98188.13;107756;1269;59720;-74
2022/10/21 08:59:41;;;;;;;;;;;;;;;17.94;35.89;98181.71;107805;1266;59749;-74
2022/10/21 09:02:34;;;;;;;;;;;;;;;18.07;34.81;98179.25;107675;1268;72116;-76
2022/10/21 09:05:22;;;;;;;;;;;;;;;18.14;35.00;98175.17;107842;1266;69283;-74
2022/10/21 09:07:54;;;;;;;;;;;;;;;18.86;34.62;98174.23;107754;1267;68947;-74
2022/10/21 09:10:43;;;;;;;;;;;;;;;19.61;32.57;98172.05;107821;1267;59776;-73
2022/10/21 09:13:35;;;;;;;;;;;;;;;18.73;33.57;98178.88;107621;1270;59708;-74
2022/10/21 09:16:15;;;;;;;;;;;;;;;19.35;33.49;98173.11;107516;1271;71714;-74
2022/10/21 09:19:04;;;;;;;;;;;;;;;19.51;32.20;98167.66;107618;1267;69677;-72
2022/10/21 09:21:48;;;;;;;;;;;;;;;20.05;31.55;98168.77;107736;1265;69349;-73
2022/10/21 09:24:38;;;;;;;;;;;;;;;20.50;31.63;98167.05;107885;1261;59799;-73
2022/10/21 09:27:08;;;;;;;;;;;;;;;20.71;30.68;98163.80;107795;1266;59695;-76
2022/10/21 09:29:41;;;;;;;;;;;;;;;21.51;29.27;98159.12;107794;1265;72454;-75
2022/10/21 09:32:16;;;;;;;;;;;;;;;21.25;29.31;98159.52;107702;1264;68581;-74
2022/10/21 09:34:44;;;;;;;;;;;;;;;21.53;29.04;98154.64;107675;1270;69100;-74
2022/10/21 09:37:24;;;;;;;;;;;;;;;21.67;28.93;98150.83;107597;1267;59771;-73
2022/10/21 09:40:11;;;;;;;;;;;;;;;21.39;28.71;98151.83;107589;1265;59714;-74
2022/10/21 09:42:39;;;;;;;;;;;;;;;22.12;28.41;98154.27;107750;1266;72086;-74
2022/10/21 09:45:26;;;;;;;;;;;;;;;21.83;28.14;98140.85;107745;1268;69959;-74
2022/10/21 09:47:57;;;;;;;;;;;;;;;23.24;26.95;98134.97;107738;1264;68524;-74
2022/10/21 09:50:26;;;;;;;;;;;;;;;23.60;25.26;98130.15;107782;1266;59760;-74
2022/10/21 09:53:16;;;;;;;;;;;;;;;23.28;24.31;98129.82;107899;1268;61163;-73
2022/10/21 09:55:55;;;;;;;;;;;;;;;23.71;24.64;98122.40;107649;1265;72087;-72
2022/10/21 09:58:42;;;;;;;;;;;;;;;24.10;24.79;98121.27;107759;1266;69277;-73
2022/10/21 10:01:15;;;;;;;;;;;;;;;23.25;24.36;98113.13;107657;1266;70048;-73
2022/10/21 10:03:48;;;;;;;;;;;;;;;23.54;24.76;98110.50;107763;1264;59757;-74
2022/10/21 10:06:33;;;;;;;;;;;;;;;23.83;24.74;98108.08;107781;1266;59748;-73
2022/10/21 10:09:20;;;;;;;;;;;;;;;24.08;24.89;98101.77;107641;1268;72097;-73
2022/10/21 10:11:59;;;;;;;;;;;;;;;24.69;24.67;98102.59;107792;1264;69220;-73
2022/10/21 10:14:30;;;;;;;;;;;;;;;24.96;24.01;98097.91;107732;1270;69314;-73
2022/10/21 10:17:30;;;;;;;;;;;;;;;25.12;23.53;98095.55;107744;1268;59736;-74
2022/10/21 10:20:04;;;;;;;;;;;;;;;25.08;22.69;98093.42;107674;1268;59674;-71
2022/10/21 10:22:40;;;;;;;;;;;;;;;24.83;23.02;98093.95;107754;1268;71496;-73
2022/10/21 10:25:22;;;;;;;;;;;;;;;25.01;23.18;98092.61;107661;1268;70087;-74
2022/10/21 10:27:51;;;;;;;;;;;;;;;25.21;22.48;98090.04;107770;1269;70047;-74
2022/10/21 10:30:21;;;;;;;;;;;;;;;24.27;24.13;98087.85;107777;1268;59725;-73
2022/10/21 10:32:51;;;;;;;;;;;;;;;24.60;24.27;98079.73;107654;1264;59692;-74
2022/10/21 10:35:19;;;;;;;;;;;;;;;25.37;23.41;98079.01;107760;1268;70396;-75
2022/10/21 10:37:48;;;;;;;;;;;;;;;25.87;23.24;98075.41;107617;1268;69714;-74
2022/10/21 10:40:21;;;;;;;;;;;;;;;25.55;22.57;98074.55;107761;1268;69285;-74
2022/10/21 10:42:52;;;;;;;;;;;;;;;26.04;22.51;98070.76;107601;1266;59735;-74
2022/10/21 10:45:21;;;;;;;;;;;;;;;26.11;22.12;98068.40;107756;1269;59702;-73
2022/10/21 10:47:55;;;;;;;;;;;;;;;25.94;21.86;98067.48;107787;1265;70717;-74
2022/10/21 10:50:39;;;;;;;;;;;;;;;25.52;22.00;98062.69;107738;1264;69111;-73
2022/10/21 10:53:22;;;;;;;;;;;;;;;24.90;23.13;98060.40;107740;1266;69767;-72
2022/10/21 10:56:03;;;;;;;;;;;;;;;25.78;22.82;98061.49;107815;1266;59751;-71
2022/10/21 10:58:34;;;;;;;;;;;;;;;26.42;21.49;98061.32;107783;1268;59698;-73
2022/10/21 11:01:05;;;;;;;;;;;;;;;26.49;21.22;98052.28;107766;1264;72144;-73
2022/10/21 11:03:41;;;;;;;;;;;;;;;26.63;20.89;98046.25;107752;1264;69231;-72
2022/10/21 11:06:14;;;;;;;;;;;;;;;25.21;22.48;98040.73;107635;1269;69310;-72
2022/10/21 11:08:51;;;;;;;;;;;;;;;25.41;22.01;98035.01;107722;1266;59674;-73
2022/10/21 11:11:22;;;;;;;;;;;;;;;25.43;21.60;98025.59;107716;1265;59780;-73
2022/10/21 11:13:51;;;;;;;;;;;;;;;25.04;22.14;98019.34;107590;1270;71373;-72
2022/10/21 11:16:42;;;;;;;;;;;;;;;26.01;21.67;98013.98;107669;1269;69907;-73
2022/10/21 11:19:32;;;;;;;;;;;;;;;26.70;21.53;98004.16;107774;1268;70027;-73
2022/10/21 11:22:01;;;;;;;;;;;;;;;26.54;21.20;97999.17;107746;1268;59756;-72
2022/10/21 11:24:36;;;;;;;;;;;;;;;26.59;21.71;97997.06;107707;1268;59734;-73
2022/10/21 11:27:10;;;;;;;;;;;;;;;27.07;20.57;97991.12;107640;1264;71261;-74
2022/10/21 11:29:53;;;;;;;;;;;;;;;26.46;21.30;97990.24;107736;1268;70149;-75
2022/10/21 11:32:22;;;;;;;;;;;;;;;26.17;21.66;97992.52;107714;1265;69920;-73
2022/10/21 11:34:50;;;;;;;;;;;;;;;26.87;20.39;97989.67;107726;1268;59791;-73
2022/10/21 11:37:43;;;;;;;;;;;;;;;27.15;20.31;97990.11;107720;1265;59673;-73
2022/10/21 11:40:17;;;;;;;;;;;;;;;27.77;20.16;97992.64;107562;1270;72121;-73
2022/10/21 11:42:47;;;;;;;;;;;;;;;28.25;19.68;97989.72;107774;1264;69401;-73
2022/10/21 11:45:32;;;;;;;;;;;;;;;28.04;19.36;97987.66;107650;1268;70089;-73
2022/10/21 11:48:06;;;;;;;;;;;;;;;27.45;20.07;97986.55;107726;1268;60119;-72
2022/10/21 11:50:49;;;;;;;;;;;;;;;27.52;19.91;97989.02;107658;1266;59738;-73
2022/10/21 11:53:35;;;;;;;;;;;;;;;27.79;19.25;97985.85;107768;1264;72126;-73
2022/10/21 11:56:11;;;;;;;;;;;;;;;27.54;19.50;97983.67;107795;1268;69242;-73
2022/10/21 11:58:57;;;;;;;;;;;;;;;26.15;20.84;97986.40;107637;1265;69395;-73
2022/10/21 12:01:28;;;;;;;;;;;;;;;26.40;20.59;97979.45;107626;1265;59708;-73
2022/10/21 12:04:06;;;;;;;;;;;;;;;26.10;20.45;97976.02;107670;1266;59709;-73
2022/10/21 12:06:51;;;;;;;;;;;;;;;26.26;20.86;97975.16;107625;1264;71493;-73
2022/10/21 12:09:23;;;;;;;;;;;;;;;26.77;20.88;97966.30;107764;1268;69090;-76
2022/10/21 12:12:01;;;;;;;;;;;;;;;26.76;20.01;97968.08;107601;1264;69270;-74
2022/10/21 12:14:35;;;;;;;;;;;;;;;26.59;20.38;97969.35;107767;1268;59761;-73
2022/10/21 12:17:10;;;;;;;;;;;;;;;26.05;20.64;97970.14;107661;1266;60158;-74
2022/10/21 12:19:39;;;;;;;;;;;;;;;25.46;20.94;97967.44;107736;1268;71402;-74
2022/10/21 12:22:09;;;;;;;;;;;;;;;24.66;22.22;97960.85;107745;1268;68247;-73
2022/10/21 12:24:43;;;;;;;;;;;;;;;24.94;21.72;97961.86;107723;1268;69933;-74
2022/10/21 12:27:17;;;;;;;;;;;;;;;25.74;21.23;97958.38;107768;1264;59699;-74
2022/10/21 12:29:58;;;;;;;;;;;;;;;26.82;20.69;97957.28;107660;1268;59761;-74
2022/10/21 12:32:39;;;;;;;;;;;;;;;27.09;20.15;97958.91;107672;1269;72008;-73
2022/10/21 12:35:11;;;;;;;;;;;;;;;27.41;19.62;97956.52;107781;1264;69244;-73
2022/10/21 12:38:04;;;;;;;;;;;;;;;27.52;19.66;97950.54;107751;1264;69289;-73
2022/10/21 12:40:36;;;;;;;;;;;;;;;26.42;19.78;97943.59;107736;1267;59747;-73
2022/10/21 12:43:16;;;;;;;;;;;;;;;26.45;19.91;97941.04;107816;1264;59673;-72
2022/10/21 12:45:45;;;;;;;;;;;;;;;26.17;19.84;97937.02;107644;1266;70559;-72
2022/10/21 12:48:26;;;;;;;;;;;;;;;26.86;19.59;97935.98;107792;1264;68498;-74
2022/10/21 12:50:56;;;;;;;;;;;;;;;27.24;19.06;97931.77;107746;1268;69103;-73
2022/10/21 12:53:28;;;;;;;;;;;;;;;26.46;19.36;97929.23;107633;1264;59746;-73
2022/10/21 12:56:00;;;;;;;;;;;;;;;26.26;20.37;97928.89;107627;1265;59654;-73
2022/10/21 12:58:40;;;;;;;;;;;;;;;26.19;19.79;97933.19;107770;1264;71469;-73
2022/10/21 13:01:28;;;;;;;;;;;;;;;26.26;19.96;97930.42;107760;1264;69834;-73
2022/10/21 13:03:56;;;;;;;;;;;;;;;26.25;19.80;97927.91;107785;1266;69358;-73
2022/10/21 13:06:43;;;;;;;;;;;;;;;25.81;20.27;97924.27;107736;1268;60202;-73
2022/10/21 13:09:30;;;;;;;;;;;;;;;25.55;20.29;97928.46;107762;1268;59737;-73